sensor_id;sensor_type;location;lat;lon;timestamp;pressure;altitude;pressure_sealevel;temperature
78961;BMP280;68362;45.970;12.646;2024-02-23T00:00:06;100123.81;;;7.39
78961;BMP280;68362;45.970;12.646;2024-02-23T00:01:10;100124.47;;;7.21
78961;BMP280;68362;45.970;12.646;2024-02-23T00:02:14;100126.97;;;6.96
78961;BMP280;68362;45.970;12.646;2024-02-23T00:03:16;100130.53;;;7.08
78961;BMP280;68362;45.970;12.646;2024-02-23T00:04:18;100131.75;;;6.99
78961;BMP280;68362;45.970;12.646;2024-02-23T00:05:21;100120.94;;;7.02
78961;BMP280;68362;45.970;12.646;2024-02-23T00:06:23;100124.34;;;7.03
78961;BMP280;68362;45.970;12.646;2024-02-23T00:07:29;100113.28;;;7.14
78961;BMP280;68362;45.970;12.646;2024-02-23T00:08:32;100116.22;;;7.31
78961;BMP280;68362;45.970;12.646;2024-02-23T00:09:35;100120.41;;;7.32
78961;BMP280;68362;45.970;12.646;2024-02-23T00:10:37;100121.53;;;7.49
78961;BMP280;68362;45.970;12.646;2024-02-23T00:11:40;100115.44;;;7.30
78961;BMP280;68362;45.970;12.646;2024-02-23T00:12:47;100119.53;;;7.44
78961;BMP280;68362;45.970;12.646;2024-02-23T00:13:52;100113.94;;;7.41
78961;BMP280;68362;45.970;12.646;2024-02-23T00:14:54;100111.94;;;7.43
78961;BMP280;68362;45.970;12.646;2024-02-23T00:15:56;100117.91;;;7.50
78961;BMP280;68362;45.970;12.646;2024-02-23T00:16:58;100115.06;;;7.58
78961;BMP280;68362;45.970;12.646;2024-02-23T00:18:03;100105.84;;;7.56
78961;BMP280;68362;45.970;12.646;2024-02-23T00:19:08;100109.00;;;7.64
78961;BMP280;68362;45.970;12.646;2024-02-23T00:20:14;100108.81;;;7.59
78961;BMP280;68362;45.970;12.646;2024-02-23T00:21:17;100113.47;;;7.57
78961;BMP280;68362;45.970;12.646;2024-02-23T00:22:19;100112.16;;;7.35
78961;BMP280;68362;45.970;12.646;2024-02-23T00:23:21;100108.41;;;7.17
78961;BMP280;68362;45.970;12.646;2024-02-23T00:24:25;100113.38;;;7.39
78961;BMP280;68362;45.970;12.646;2024-02-23T00:25:27;100110.66;;;7.14
78961;BMP280;68362;45.970;12.646;2024-02-23T00:26:29;100098.06;;;7.04
78961;BMP280;68362;45.970;12.646;2024-02-23T00:27:31;100102.28;;;6.98
78961;BMP280;68362;45.970;12.646;2024-02-23T00:28:34;100106.13;;;6.89
78961;BMP280;68362;45.970;12.646;2024-02-23T00:29:36;100103.94;;;6.80
78961;BMP280;68362;45.970;12.646;2024-02-23T00:30:38;100107.78;;;6.70
78961;BMP280;68362;45.970;12.646;2024-02-23T00:31:41;100108.97;;;6.68
78961;BMP280;68362;45.970;12.646;2024-02-23T00:32:43;100116.22;;;6.66
78961;BMP280;68362;45.970;12.646;2024-02-23T00:33:45;100110.56;;;6.76
78961;BMP280;68362;45.970;12.646;2024-02-23T00:34:47;100115.94;;;7.01
78961;BMP280;68362;45.970;12.646;2024-02-23T00:35:50;100115.53;;;6.90
78961;BMP280;68362;45.970;12.646;2024-02-23T00:36:52;100115.16;;;6.87
78961;BMP280;68362;45.970;12.646;2024-02-23T00:37:54;100111.56;;;6.88
78961;BMP280;68362;45.970;12.646;2024-02-23T00:38:57;100112.78;;;6.79
78961;BMP280;68362;45.970;12.646;2024-02-23T00:39:59;100114.16;;;6.88
78961;BMP280;68362;45.970;12.646;2024-02-23T00:41:01;100112.34;;;6.95
78961;BMP280;68362;45.970;12.646;2024-02-23T00:42:03;100108.22;;;7.19
78961;BMP280;68362;45.970;12.646;2024-02-23T00:43:06;100104.00;;;7.18
78961;BMP280;68362;45.970;12.646;2024-02-23T00:44:08;100104.81;;;7.18
78961;BMP280;68362;45.970;12.646;2024-02-23T00:45:10;100097.72;;;7.32
78961;BMP280;68362;45.970;12.646;2024-02-23T00:46:12;100102.94;;;7.32
78961;BMP280;68362;45.970;12.646;2024-02-23T00:47:18;100090.66;;;7.46
78961;BMP280;68362;45.970;12.646;2024-02-23T00:48:20;100090.41;;;7.54
78961;BMP280;68362;45.970;12.646;2024-02-23T00:49:23;100088.16;;;7.58
78961;BMP280;68362;45.970;12.646;2024-02-23T00:50:25;100093.53;;;7.31
78961;BMP280;68362;45.970;12.646;2024-02-23T00:51:30;100095.94;;;7.26
78961;BMP280;68362;45.970;12.646;2024-02-23T00:52:33;100092.13;;;7.29
78961;BMP280;68362;45.970;12.646;2024-02-23T00:53:36;100089.66;;;7.40
78961;BMP280;68362;45.970;12.646;2024-02-23T00:54:38;100089.31;;;7.23
78961;BMP280;68362;45.970;12.646;2024-02-23T00:55:40;100092.69;;;7.37
78961;BMP280;68362;45.970;12.646;2024-02-23T00:56:42;100100.19;;;7.27
78961;BMP280;68362;45.970;12.646;2024-02-23T00:57:53;100094.75;;;7.29
78961;BMP280;68362;45.970;12.646;2024-02-23T00:58:55;100091.91;;;7.37
78961;BMP280;68362;45.970;12.646;2024-02-23T00:59:57;100097.47;;;7.40
78961;BMP280;68362;45.970;12.646;2024-02-23T01:01:00;100093.25;;;7.46
78961;BMP280;68362;45.970;12.646;2024-02-23T01:02:02;100090.66;;;7.46
78961;BMP280;68362;45.970;12.646;2024-02-23T01:03:04;100092.13;;;7.29
78961;BMP280;68362;45.970;12.646;2024-02-23T01:04:07;100094.44;;;7.05
78961;BMP280;68362;45.970;12.646;2024-02-23T01:05:09;100091.41;;;7.08
78961;BMP280;68362;45.970;12.646;2024-02-23T01:06:13;100093.56;;;7.18
78961;BMP280;68362;45.970;12.646;2024-02-23T01:07:15;100088.56;;;7.23
78961;BMP280;68362;45.970;12.646;2024-02-23T01:08:17;100093.91;;;7.35
78961;BMP280;68362;45.970;12.646;2024-02-23T01:09:19;100093.56;;;7.24
78961;BMP280;68362;45.970;12.646;2024-02-23T01:10:23;100091.50;;;7.40
78961;BMP280;68362;45.970;12.646;2024-02-23T01:11:26;100081.50;;;7.30
78961;BMP280;68362;45.970;12.646;2024-02-23T01:12:28;100083.75;;;7.20
78961;BMP280;68362;45.970;12.646;2024-02-23T01:13:31;100088.72;;;7.28
78961;BMP280;68362;45.970;12.646;2024-02-23T01:14:33;100090.78;;;7.19
78961;BMP280;68362;45.970;12.646;2024-02-23T01:15:36;100085.59;;;7.06
78961;BMP280;68362;45.970;12.646;2024-02-23T01:16:38;100077.78;;;6.99
78961;BMP280;68362;45.970;12.646;2024-02-23T01:17:40;100078.44;;;6.95
78961;BMP280;68362;45.970;12.646;2024-02-23T01:18:43;100079.94;;;7.22
78961;BMP280;68362;45.970;12.646;2024-02-23T01:19:46;100080.25;;;7.33
78961;BMP280;68362;45.970;12.646;2024-02-23T01:20:48;100076.66;;;7.34
78961;BMP280;68362;45.970;12.646;2024-02-23T01:21:50;100068.81;;;7.34
78961;BMP280;68362;45.970;12.646;2024-02-23T01:23:01;100072.09;;;7.22
78961;BMP280;68362;45.970;12.646;2024-02-23T01:24:04;100063.38;;;7.35
78961;BMP280;68362;45.970;12.646;2024-02-23T01:25:06;100065.41;;;7.27
78961;BMP280;68362;45.970;12.646;2024-02-23T01:26:08;100070.75;;;7.13
78961;BMP280;68362;45.970;12.646;2024-02-23T01:27:11;100063.25;;;7.17
78961;BMP280;68362;45.970;12.646;2024-02-23T01:28:13;100062.81;;;7.27
78961;BMP280;68362;45.970;12.646;2024-02-23T01:29:15;100067.13;;;7.08
78961;BMP280;68362;45.970;12.646;2024-02-23T01:30:18;100058.66;;;7.19
78961;BMP280;68362;45.970;12.646;2024-02-23T01:31:21;100048.63;;;7.22
78961;BMP280;68362;45.970;12.646;2024-02-23T01:32:23;100049.03;;;7.19
78961;BMP280;68362;45.970;12.646;2024-02-23T01:33:25;100039.38;;;7.20
78961;BMP280;68362;45.970;12.646;2024-02-23T01:34:27;100040.94;;;7.28
78961;BMP280;68362;45.970;12.646;2024-02-23T01:35:30;100036.06;;;7.38
78961;BMP280;68362;45.970;12.646;2024-02-23T01:36:32;100039.69;;;7.37
78961;BMP280;68362;45.970;12.646;2024-02-23T01:37:35;100045.16;;;7.29
78961;BMP280;68362;45.970;12.646;2024-02-23T01:38:37;100037.78;;;7.19
78961;BMP280;68362;45.970;12.646;2024-02-23T01:39:39;100037.00;;;7.18
78961;BMP280;68362;45.970;12.646;2024-02-23T01:40:42;100031.78;;;7.18
78961;BMP280;68362;45.970;12.646;2024-02-23T01:41:44;100037.84;;;7.06
78961;BMP280;68362;45.970;12.646;2024-02-23T01:42:46;100035.47;;;6.91
78961;BMP280;68362;45.970;12.646;2024-02-23T01:43:48;100034.22;;;7.13
78961;BMP280;68362;45.970;12.646;2024-02-23T01:44:54;100027.06;;;6.95
78961;BMP280;68362;45.970;12.646;2024-02-23T01:45:59;100021.47;;;6.92
78961;BMP280;68362;45.970;12.646;2024-02-23T01:47:02;100011.25;;;6.84
78961;BMP280;68362;45.970;12.646;2024-02-23T01:48:04;100005.81;;;6.92
78961;BMP280;68362;45.970;12.646;2024-02-23T01:49:08;100007.47;;;6.80
78961;BMP280;68362;45.970;12.646;2024-02-23T01:50:11;100011.09;;;6.79
78961;BMP280;68362;45.970;12.646;2024-02-23T01:51:14;100016.66;;;6.82
78961;BMP280;68362;45.970;12.646;2024-02-23T01:52:18;100011.59;;;6.94
78961;BMP280;68362;45.970;12.646;2024-02-23T01:53:20;100018.56;;;7.07
78961;BMP280;68362;45.970;12.646;2024-02-23T01:54:24;100013.13;;;7.08
78961;BMP280;68362;45.970;12.646;2024-02-23T01:55:26;100019.31;;;7.20
78961;BMP280;68362;45.970;12.646;2024-02-23T01:56:29;100020.72;;;7.16
78961;BMP280;68362;45.970;12.646;2024-02-23T01:57:32;100015.25;;;7.31
78961;BMP280;68362;45.970;12.646;2024-02-23T01:58:51;100006.13;;;7.40
78961;BMP280;68362;45.970;12.646;2024-02-23T01:59:55;100010.06;;;7.49
78961;BMP280;68362;45.970;12.646;2024-02-23T02:00:57;100002.94;;;7.38
78961;BMP280;68362;45.970;12.646;2024-02-23T02:01:59;100006.78;;;7.36
78961;BMP280;68362;45.970;12.646;2024-02-23T02:03:02;99994.78;;;7.53
78961;BMP280;68362;45.970;12.646;2024-02-23T02:04:05;99990.44;;;7.47
78961;BMP280;68362;45.970;12.646;2024-02-23T02:05:07;99991.16;;;7.29
78961;BMP280;68362;45.970;12.646;2024-02-23T02:06:10;99986.72;;;7.30
78961;BMP280;68362;45.970;12.646;2024-02-23T02:07:13;99977.56;;;7.20
78961;BMP280;68362;45.970;12.646;2024-02-23T02:08:15;99983.28;;;7.04
78961;BMP280;68362;45.970;12.646;2024-02-23T02:09:19;99975.72;;;7.28
78961;BMP280;68362;45.970;12.646;2024-02-23T02:10:21;99982.44;;;7.10
78961;BMP280;68362;45.970;12.646;2024-02-23T02:11:23;99972.03;;;7.35
78961;BMP280;68362;45.970;12.646;2024-02-23T02:12:29;99973.22;;;7.33
78961;BMP280;68362;45.970;12.646;2024-02-23T02:13:31;99970.75;;;7.19
78961;BMP280;68362;45.970;12.646;2024-02-23T02:14:33;99967.88;;;7.28
78961;BMP280;68362;45.970;12.646;2024-02-23T02:15:36;99964.88;;;7.31
78961;BMP280;68362;45.970;12.646;2024-02-23T02:16:39;99965.84;;;7.30
78961;BMP280;68362;45.970;12.646;2024-02-23T02:17:41;99965.84;;;7.30
78961;BMP280;68362;45.970;12.646;2024-02-23T02:18:43;99966.25;;;7.27
78961;BMP280;68362;45.970;12.646;2024-02-23T02:19:48;99965.06;;;7.29
78961;BMP280;68362;45.970;12.646;2024-02-23T02:20:52;99961.41;;;7.37
78961;BMP280;68362;45.970;12.646;2024-02-23T02:21:56;99959.88;;;7.22
78961;BMP280;68362;45.970;12.646;2024-02-23T02:22:58;99957.56;;;7.08
78961;BMP280;68362;45.970;12.646;2024-02-23T02:24:00;99955.81;;;7.02
78961;BMP280;68362;45.970;12.646;2024-02-23T02:25:03;99962.47;;;6.91
78961;BMP280;68362;45.970;12.646;2024-02-23T02:26:06;99956.84;;;6.94
78961;BMP280;68362;45.970;12.646;2024-02-23T02:27:08;99958.00;;;7.05
78961;BMP280;68362;45.970;12.646;2024-02-23T02:28:11;99954.84;;;6.96
78961;BMP280;68362;45.970;12.646;2024-02-23T02:29:13;99949.63;;;6.96
78961;BMP280;68362;45.970;12.646;2024-02-23T02:30:16;99948.03;;;6.95
78961;BMP280;68362;45.970;12.646;2024-02-23T02:31:18;99942.81;;;6.95
78961;BMP280;68362;45.970;12.646;2024-02-23T02:32:20;99935.97;;;6.94
78961;BMP280;68362;45.970;12.646;2024-02-23T02:33:23;99942.38;;;6.98
78961;BMP280;68362;45.970;12.646;2024-02-23T02:34:25;99939.78;;;6.91
78961;BMP280;68362;45.970;12.646;2024-02-23T02:35:27;99941.88;;;7.14
78961;BMP280;68362;45.970;12.646;2024-02-23T02:36:30;99937.31;;;7.03
78961;BMP280;68362;45.970;12.646;2024-02-23T02:37:32;99937.38;;;6.96
78961;BMP280;68362;45.970;12.646;2024-02-23T02:38:34;99936.81;;;6.88
78961;BMP280;68362;45.970;12.646;2024-02-23T02:39:36;99928.91;;;7.01
78961;BMP280;68362;45.970;12.646;2024-02-23T02:40:39;99932.25;;;7.08
78961;BMP280;68362;45.970;12.646;2024-02-23T02:41:41;99931.66;;;7.13
78961;BMP280;68362;45.970;12.646;2024-02-23T02:42:43;99934.63;;;7.16
78961;BMP280;68362;45.970;12.646;2024-02-23T02:43:45;99929.00;;;7.19
78961;BMP280;68362;45.970;12.646;2024-02-23T02:44:48;99923.06;;;7.06
78961;BMP280;68362;45.970;12.646;2024-02-23T02:45:50;99920.47;;;6.99
78961;BMP280;68362;45.970;12.646;2024-02-23T02:46:52;99920.06;;;7.02
78961;BMP280;68362;45.970;12.646;2024-02-23T02:47:54;99916.81;;;7.13
78961;BMP280;68362;45.970;12.646;2024-02-23T02:48:56;99912.41;;;7.07
78961;BMP280;68362;45.970;12.646;2024-02-23T02:49:59;99914.66;;;7.04
78961;BMP280;68362;45.970;12.646;2024-02-23T02:51:01;99906.72;;;7.17
78961;BMP280;68362;45.970;12.646;2024-02-23T02:52:03;99905.28;;;7.21
78961;BMP280;68362;45.970;12.646;2024-02-23T02:53:05;99900.03;;;7.28
78961;BMP280;68362;45.970;12.646;2024-02-23T02:54:07;99900.97;;;7.33
78961;BMP280;68362;45.970;12.646;2024-02-23T02:55:10;99908.19;;;7.38
78961;BMP280;68362;45.970;12.646;2024-02-23T02:56:12;99897.75;;;7.13
78961;BMP280;68362;45.970;12.646;2024-02-23T02:57:14;99898.22;;;7.28
78961;BMP280;68362;45.970;12.646;2024-02-23T02:58:17;99902.25;;;7.49
78961;BMP280;68362;45.970;12.646;2024-02-23T02:59:20;99904.28;;;7.22
78961;BMP280;68362;45.970;12.646;2024-02-23T03:00:23;99900.81;;;7.28
78961;BMP280;68362;45.970;12.646;2024-02-23T03:01:26;99892.47;;;7.19
78961;BMP280;68362;45.970;12.646;2024-02-23T03:02:28;99900.28;;;7.19
78961;BMP280;68362;45.970;12.646;2024-02-23T03:03:31;99897.34;;;7.09
78961;BMP280;68362;45.970;12.646;2024-02-23T03:04:33;99903.41;;;7.03
78961;BMP280;68362;45.970;12.646;2024-02-23T03:05:35;99896.97;;;7.06
78961;BMP280;68362;45.970;12.646;2024-02-23T03:06:39;99903.41;;;7.03
78961;BMP280;68362;45.970;12.646;2024-02-23T03:07:41;99895.16;;;7.06
78961;BMP280;68362;45.970;12.646;2024-02-23T03:08:43;99891.06;;;7.17
78961;BMP280;68362;45.970;12.646;2024-02-23T03:09:45;99894.72;;;7.09
78961;BMP280;68362;45.970;12.646;2024-02-23T03:10:48;99903.53;;;7.15
78961;BMP280;68362;45.970;12.646;2024-02-23T03:11:50;99891.19;;;7.29
78961;BMP280;68362;45.970;12.646;2024-02-23T03:12:52;99903.06;;;7.24
78961;BMP280;68362;45.970;12.646;2024-02-23T03:13:54;99890.47;;;7.21
78961;BMP280;68362;45.970;12.646;2024-02-23T03:14:57;99885.66;;;7.18
78961;BMP280;68362;45.970;12.646;2024-02-23T03:15:59;99889.09;;;7.37
78961;BMP280;68362;45.970;12.646;2024-02-23T03:17:02;99891.13;;;7.35
78961;BMP280;68362;45.970;12.646;2024-02-23T03:18:05;99888.50;;;7.35
78961;BMP280;68362;45.970;12.646;2024-02-23T03:19:11;99884.91;;;7.36
78961;BMP280;68362;45.970;12.646;2024-02-23T03:20:15;99881.88;;;7.39
78961;BMP280;68362;45.970;12.646;2024-02-23T03:21:18;99890.59;;;7.52
78961;BMP280;68362;45.970;12.646;2024-02-23T03:22:20;99893.41;;;7.50
78961;BMP280;68362;45.970;12.646;2024-02-23T03:23:22;99884.50;;;7.33
78961;BMP280;68362;45.970;12.646;2024-02-23T03:24:25;99894.28;;;7.19
78961;BMP280;68362;45.970;12.646;2024-02-23T03:25:27;99881.16;;;7.26
78961;BMP280;68362;45.970;12.646;2024-02-23T03:26:29;99882.88;;;7.13
78961;BMP280;68362;45.970;12.646;2024-02-23T03:27:32;99878.72;;;7.06
78961;BMP280;68362;45.970;12.646;2024-02-23T03:28:34;99880.31;;;7.32
78961;BMP280;68362;45.970;12.646;2024-02-23T03:29:38;99879.56;;;7.24
78961;BMP280;68362;45.970;12.646;2024-02-23T03:30:41;99884.22;;;7.22
78961;BMP280;68362;45.970;12.646;2024-02-23T03:31:44;99882.69;;;7.08
78961;BMP280;68362;45.970;12.646;2024-02-23T03:32:46;99880.94;;;7.02
78961;BMP280;68362;45.970;12.646;2024-02-23T03:33:49;99880.00;;;6.96
78961;BMP280;68362;45.970;12.646;2024-02-23T03:34:51;99875.72;;;7.02
78961;BMP280;68362;45.970;12.646;2024-02-23T03:35:53;99881.34;;;6.99
78961;BMP280;68362;45.970;12.646;2024-02-23T03:36:57;99877.78;;;6.93
78961;BMP280;68362;45.970;12.646;2024-02-23T03:38:00;99872.53;;;7.00
78961;BMP280;68362;45.970;12.646;2024-02-23T03:39:02;99873.38;;;6.94
78961;BMP280;68362;45.970;12.646;2024-02-23T03:40:05;99867.91;;;7.02
78961;BMP280;68362;45.970;12.646;2024-02-23T03:41:08;99867.75;;;6.97
78961;BMP280;68362;45.970;12.646;2024-02-23T03:42:10;99863.75;;;6.94
78961;BMP280;68362;45.970;12.646;2024-02-23T03:43:12;99873.38;;;6.94
78961;BMP280;68362;45.970;12.646;2024-02-23T03:44:14;99870.19;;;6.92
78961;BMP280;68362;45.970;12.646;2024-02-23T03:45:16;99865.31;;;7.02
78961;BMP280;68362;45.970;12.646;2024-02-23T03:46:19;99864.13;;;6.98
78961;BMP280;68362;45.970;12.646;2024-02-23T03:47:21;99867.31;;;7.00
78961;BMP280;68362;45.970;12.646;2024-02-23T03:48:24;99865.31;;;7.02
78961;BMP280;68362;45.970;12.646;2024-02-23T03:49:26;99866.44;;;7.13
78961;BMP280;68362;45.970;12.646;2024-02-23T03:50:29;99866.72;;;6.98
78961;BMP280;68362;45.970;12.646;2024-02-23T03:51:31;99864.13;;;6.98
78961;BMP280;68362;45.970;12.646;2024-02-23T03:52:35;99864.13;;;6.98
78961;BMP280;68362;45.970;12.646;2024-02-23T03:53:37;99866.16;;;6.96
78961;BMP280;68362;45.970;12.646;2024-02-23T03:54:39;99858.06;;;7.04
78961;BMP280;68362;45.970;12.646;2024-02-23T03:55:41;99860.94;;;6.96
78961;BMP280;68362;45.970;12.646;2024-02-23T03:56:43;99858.09;;;6.97
78961;BMP280;68362;45.970;12.646;2024-02-23T03:57:45;99858.19;;;7.09
78961;BMP280;68362;45.970;12.646;2024-02-23T03:58:48;99854.00;;;7.08
78961;BMP280;68362;45.970;12.646;2024-02-23T03:59:56;99855.94;;;7.19
78961;BMP280;68362;45.970;12.646;2024-02-23T04:00:59;99846.63;;;7.05
78961;BMP280;68362;45.970;12.646;2024-02-23T04:02:01;99837.63;;;7.01
78961;BMP280;68362;45.970;12.646;2024-02-23T04:03:03;99842.84;;;7.01
78961;BMP280;68362;45.970;12.646;2024-02-23T04:04:06;99841.03;;;7.02
78961;BMP280;68362;45.970;12.646;2024-02-23T04:05:09;99829.56;;;7.03
78961;BMP280;68362;45.970;12.646;2024-02-23T04:06:11;99838.69;;;7.18
78961;BMP280;68362;45.970;12.646;2024-02-23T04:07:13;99829.84;;;7.19
78961;BMP280;68362;45.970;12.646;2024-02-23T04:08:15;99837.22;;;7.04
78961;BMP280;68362;45.970;12.646;2024-02-23T04:09:18;99836.94;;;7.12
78961;BMP280;68362;45.970;12.646;2024-02-23T04:10:20;99834.22;;;7.01
78961;BMP280;68362;45.970;12.646;2024-02-23T04:11:22;99834.94;;;7.08
78961;BMP280;68362;45.970;12.646;2024-02-23T04:12:24;99835.16;;;7.06
78961;BMP280;68362;45.970;12.646;2024-02-23T04:13:27;99844.66;;;7.01
78961;BMP280;68362;45.970;12.646;2024-02-23T04:14:29;99837.63;;;7.01
78961;BMP280;68362;45.970;12.646;2024-02-23T04:15:31;99840.88;;;6.96
78961;BMP280;68362;45.970;12.646;2024-02-23T04:16:33;99843.63;;;7.02
78961;BMP280;68362;45.970;12.646;2024-02-23T04:17:36;99830.63;;;7.20
78961;BMP280;68362;45.970;12.646;2024-02-23T04:18:38;99830.34;;;7.10
78961;BMP280;68362;45.970;12.646;2024-02-23T04:19:41;99832.00;;;7.04
78961;BMP280;68362;45.970;12.646;2024-02-23T04:20:43;99828.59;;;7.04
78961;BMP280;68362;45.970;12.646;2024-02-23T04:21:46;99827.19;;;7.01
78961;BMP280;68362;45.970;12.646;2024-02-23T04:22:48;99822.16;;;6.99
78961;BMP280;68362;45.970;12.646;2024-02-23T04:23:51;99825.13;;;7.10
78961;BMP280;68362;45.970;12.646;2024-02-23T04:24:53;99817.13;;;7.05
78961;BMP280;68362;45.970;12.646;2024-02-23T04:25:55;99812.34;;;7.02
78961;BMP280;68362;45.970;12.646;2024-02-23T04:26:57;99818.50;;;7.07
78961;BMP280;68362;45.970;12.646;2024-02-23T04:28:00;99820.28;;;7.13
78961;BMP280;68362;45.970;12.646;2024-02-23T04:29:02;99822.28;;;7.11
78961;BMP280;68362;45.970;12.646;2024-02-23T04:30:05;99827.09;;;7.14
78961;BMP280;68362;45.970;12.646;2024-02-23T04:31:08;99818.34;;;7.02
78961;BMP280;68362;45.970;12.646;2024-02-23T04:32:11;99805.31;;;7.02
78961;BMP280;68362;45.970;12.646;2024-02-23T04:33:13;99810.25;;;7.10
78961;BMP280;68362;45.970;12.646;2024-02-23T04:34:15;99812.72;;;7.05
78961;BMP280;68362;45.970;12.646;2024-02-23T04:35:18;99811.47;;;7.08
78961;BMP280;68362;45.970;12.646;2024-02-23T04:36:20;99804.47;;;7.27
78961;BMP280;68362;45.970;12.646;2024-02-23T04:37:23;99804.03;;;7.11
78961;BMP280;68362;45.970;12.646;2024-02-23T04:38:25;99811.78;;;7.18
78961;BMP280;68362;45.970;12.646;2024-02-23T04:39:27;99802.88;;;7.26
78961;BMP280;68362;45.970;12.646;2024-02-23T04:40:29;99810.97;;;7.17
78961;BMP280;68362;45.970;12.646;2024-02-23T04:41:31;99803.03;;;7.12
78961;BMP280;68362;45.970;12.646;2024-02-23T04:42:34;99799.66;;;7.23
78961;BMP280;68362;45.970;12.646;2024-02-23T04:43:36;99802.16;;;7.18
78961;BMP280;68362;45.970;12.646;2024-02-23T04:44:41;99810.84;;;7.12
78961;BMP280;68362;45.970;12.646;2024-02-23T04:45:43;99802.81;;;7.32
78961;BMP280;68362;45.970;12.646;2024-02-23T04:46:46;99797.66;;;7.26
78961;BMP280;68362;45.970;12.646;2024-02-23T04:47:48;99807.94;;;7.20
78961;BMP280;68362;45.970;12.646;2024-02-23T04:48:50;99793.59;;;7.11
78961;BMP280;68362;45.970;12.646;2024-02-23T04:49:53;99790.19;;;7.11
78961;BMP280;68362;45.970;12.646;2024-02-23T04:50:55;99795.88;;;7.01
78961;BMP280;68362;45.970;12.646;2024-02-23T04:51:57;99796.88;;;7.00
78961;BMP280;68362;45.970;12.646;2024-02-23T04:53:00;99790.19;;;7.11
78961;BMP280;68362;45.970;12.646;2024-02-23T04:54:02;99791.53;;;6.95
78961;BMP280;68362;45.970;12.646;2024-02-23T04:55:05;99789.00;;;7.07
78961;BMP280;68362;45.970;12.646;2024-02-23T04:56:07;99791.47;;;7.02
78961;BMP280;68362;45.970;12.646;2024-02-23T04:57:09;99786.75;;;6.92
78961;BMP280;68362;45.970;12.646;2024-02-23T04:58:11;99782.09;;;6.94
78961;BMP280;68362;45.970;12.646;2024-02-23T04:59:14;99784.13;;;6.92
78961;BMP280;68362;45.970;12.646;2024-02-23T05:00:16;99786.44;;;7.00
78961;BMP280;68362;45.970;12.646;2024-02-23T05:01:20;99779.56;;;6.87
78961;BMP280;68362;45.970;12.646;2024-02-23T05:02:22;99785.56;;;6.88
78961;BMP280;68362;45.970;12.646;2024-02-23T05:03:25;99783.13;;;6.93
78961;BMP280;68362;45.970;12.646;2024-02-23T05:04:27;99785.88;;;6.98
78961;BMP280;68362;45.970;12.646;2024-02-23T05:05:31;99773.72;;;7.10
78961;BMP280;68362;45.970;12.646;2024-02-23T05:06:34;99782.09;;;6.94
78961;BMP280;68362;45.970;12.646;2024-02-23T05:07:37;99784.28;;;6.97
78961;BMP280;68362;45.970;12.646;2024-02-23T05:08:40;99784.28;;;6.97
78961;BMP280;68362;45.970;12.646;2024-02-23T05:09:43;99774.94;;;7.08
78961;BMP280;68362;45.970;12.646;2024-02-23T05:10:46;99771.78;;;7.06
78961;BMP280;68362;45.970;12.646;2024-02-23T05:11:49;99785.47;;;7.01
78961;BMP280;68362;45.970;12.646;2024-02-23T05:12:52;99780.81;;;7.03
78961;BMP280;68362;45.970;12.646;2024-02-23T05:13:55;99783.50;;;6.96
78961;BMP280;68362;45.970;12.646;2024-02-23T05:14:57;99777.09;;;6.92
78961;BMP280;68362;45.970;12.646;2024-02-23T05:16:00;99779.38;;;7.07
78961;BMP280;68362;45.970;12.646;2024-02-23T05:17:03;99785.56;;;6.88
78961;BMP280;68362;45.970;12.646;2024-02-23T05:18:05;99784.28;;;6.97
78961;BMP280;68362;45.970;12.646;2024-02-23T05:19:08;99784.28;;;6.97
78961;BMP280;68362;45.970;12.646;2024-02-23T05:20:11;99786.31;;;6.95
78961;BMP280;68362;45.970;12.646;2024-02-23T05:21:14;99787.56;;;6.86
78961;BMP280;68362;45.970;12.646;2024-02-23T05:22:17;99786.31;;;6.95
78961;BMP280;68362;45.970;12.646;2024-02-23T05:23:20;99783.91;;;6.93
78961;BMP280;68362;45.970;12.646;2024-02-23T05:24:23;99783.66;;;7.02
78961;BMP280;68362;45.970;12.646;2024-02-23T05:25:25;99787.16;;;6.89
78961;BMP280;68362;45.970;12.646;2024-02-23T05:26:28;99783.97;;;6.87
78961;BMP280;68362;45.970;12.646;2024-02-23T05:27:31;99784.81;;;6.81
78961;BMP280;68362;45.970;12.646;2024-02-23T05:28:34;99786.91;;;6.97
78961;BMP280;68362;45.970;12.646;2024-02-23T05:29:37;99793.97;;;6.90
78961;BMP280;68362;45.970;12.646;2024-02-23T05:30:39;99787.16;;;6.89
78961;BMP280;68362;45.970;12.646;2024-02-23T05:31:52;99790.78;;;6.88
78961;BMP280;68362;45.970;12.646;2024-02-23T05:32:55;99787.91;;;6.96
78961;BMP280;68362;45.970;12.646;2024-02-23T05:33:59;99791.34;;;6.90
78961;BMP280;68362;45.970;12.646;2024-02-23T05:35:01;99799.19;;;6.90
78961;BMP280;68362;45.970;12.646;2024-02-23T05:36:06;99795.41;;;6.86
78961;BMP280;68362;45.970;12.646;2024-02-23T05:37:09;99792.25;;;7.02
78961;BMP280;68362;45.970;12.646;2024-02-23T05:38:12;99794.97;;;6.89
78961;BMP280;68362;45.970;12.646;2024-02-23T05:39:14;99795.34;;;6.92
78961;BMP280;68362;45.970;12.646;2024-02-23T05:40:20;99799.94;;;6.97
78961;BMP280;68362;45.970;12.646;2024-02-23T05:41:23;99790.19;;;6.86
78961;BMP280;68362;45.970;12.646;2024-02-23T05:42:25;99800.19;;;6.89
78961;BMP280;68362;45.970;12.646;2024-02-23T05:43:28;99788.72;;;6.96
78961;BMP280;68362;45.970;12.646;2024-02-23T05:44:30;99792.53;;;6.94
78961;BMP280;68362;45.970;12.646;2024-02-23T05:45:34;99782.78;;;6.83
78961;BMP280;68362;45.970;12.646;2024-02-23T05:46:36;99773.81;;;6.79
78961;BMP280;68362;45.970;12.646;2024-02-23T05:47:39;99777.56;;;6.83
78961;BMP280;68362;45.970;12.646;2024-02-23T05:48:45;99781.09;;;6.95
78961;BMP280;68362;45.970;12.646;2024-02-23T05:49:49;99772.22;;;6.78
78961;BMP280;68362;45.970;12.646;2024-02-23T05:50:51;99775.69;;;6.71
78961;BMP280;68362;45.970;12.646;2024-02-23T05:51:54;99778.41;;;6.77
78961;BMP280;68362;45.970;12.646;2024-02-23T05:52:57;99779.44;;;6.76
78961;BMP280;68362;45.970;12.646;2024-02-23T05:54:00;99785.13;;;6.91
78961;BMP280;68362;45.970;12.646;2024-02-23T05:55:03;99781.16;;;6.88
78961;BMP280;68362;45.970;12.646;2024-02-23T05:56:06;99784.50;;;6.95
78961;BMP280;68362;45.970;12.646;2024-02-23T05:57:13;99769.06;;;6.94
78961;BMP280;68362;45.970;12.646;2024-02-23T05:58:16;99780.63;;;6.80
78961;BMP280;68362;45.970;12.646;2024-02-23T05:59:19;99768.41;;;6.80